Time;durP1;ratioP1;P1;durP2;ratioP2;P2;SDS_P1;SDS_P2;PMS_P1;PMS_P2;Temp;Humidity;BMP_temperature;BMP_pressure;BME280_temperature;BME280_humidity;BME280_pressure;Samples;Min_cycle;Max_cycle;Signal;HPM_P1;HPM_P2
2023/03/05 00:02:04;;;;;;;4.60;1.20;;;2.70;99.90;;;;;;5057891;28;20048;-78
2023/03/05 00:04:30;;;;;;;6.72;1.30;;;2.80;99.90;;;;;;5069712;28;20036;-78
2023/03/05 00:06:57;;;;;;;8.55;2.08;;;2.80;99.90;;;;;;5077883;28;20040;-78
2023/03/05 00:09:24;;;;;;;10.80;1.52;;;2.80;99.90;;;;;;5078018;28;20036;-78
2023/03/05 00:11:52;;;;;;;4.47;1.02;;;2.80;99.90;;;;;;5110996;28;20036;-79
2023/03/05 00:14:19;;;;;;;7.30;1.50;;;2.80;99.90;;;;;;5092882;28;20874;-78
2023/03/05 00:16:47;;;;;;;6.75;1.13;;;3.20;99.90;;;;;;5094420;28;20075;-78
2023/03/05 00:19:13;;;;;;;4.78;1.08;;;2.90;99.90;;;;;;5077492;28;20113;-79
2023/03/05 00:21:41;;;;;;;7.93;1.02;;;2.90;99.90;;;;;;5077904;28;20036;-78
2023/03/05 00:24:17;;;;;;;6.40;1.40;;;3.10;99.90;;;;;;5093930;28;20447;-78
2023/03/05 00:26:44;;;;;;;6.25;1.25;;;2.90;99.90;;;;;;5090792;28;20036;-78
2023/03/05 00:29:17;;;;;;;14.15;1.30;;;2.70;99.90;;;;;;5057107;28;20076;-79
2023/03/05 00:31:45;;;;;;;4.00;1.02;;;2.80;99.90;;;;;;5073931;28;20098;-78
2023/03/05 00:34:14;;;;;;;6.15;1.20;;;3.10;99.90;;;;;;5073801;28;20127;-79
2023/03/05 00:36:46;;;;;;;6.90;1.15;;;2.70;99.90;;;;;;5069917;28;20044;-78
2023/03/05 00:39:13;;;;;;;9.30;1.30;;;2.70;99.90;;;;;;5089984;28;20525;-78
2023/03/05 00:41:40;;;;;;;6.85;1.25;;;2.60;99.90;;;;;;5073843;28;20087;-78
2023/03/05 00:44:07;;;;;;;3.95;1.10;;;2.60;99.90;;;;;;5073419;28;20590;-78
2023/03/05 00:46:34;;;;;;;3.78;1.15;;;2.80;99.90;;;;;;5090375;28;20044;-78
2023/03/05 00:49:00;;;;;;;7.15;1.40;;;2.60;99.90;;;;;;5073644;28;20043;-79
2023/03/05 00:51:27;;;;;;;5.03;1.30;;;3.20;99.90;;;;;;5090521;28;20451;-79
2023/03/05 00:53:54;;;;;;;11.75;1.33;;;2.60;99.90;;;;;;5073429;28;20049;-78
2023/03/05 00:56:21;;;;;;;6.80;1.30;;;2.60;99.90;;;;;;5078094;28;20508;-79
2023/03/05 00:58:48;;;;;;;8.63;1.55;;;2.60;99.90;;;;;;5093597;28;20412;-78
2023/03/05 01:01:15;;;;;;;7.47;1.30;;;2.80;99.90;;;;;;5093136;28;20050;-78
2023/03/05 01:03:42;;;;;;;5.25;1.40;;;2.60;99.90;;;;;;5093397;28;20412;-78
2023/03/05 01:06:12;;;;;;;8.70;1.48;;;2.60;99.90;;;;;;5076008;28;20541;-78
2023/03/05 01:08:39;;;;;;;7.30;1.35;;;2.70;99.90;;;;;;5069329;28;20101;-78
2023/03/05 01:11:07;;;;;;;5.22;1.20;;;2.60;99.90;;;;;;5109839;28;20451;-79
2023/03/05 01:13:34;;;;;;;5.05;1.20;;;2.60;99.90;;;;;;5109979;28;20098;-79
2023/03/05 01:16:01;;;;;;;6.53;1.30;;;2.90;99.90;;;;;;5093353;28;20115;-79
2023/03/05 01:18:28;;;;;;;6.90;1.70;;;2.70;99.90;;;;;;5078064;28;20060;-78
2023/03/05 01:20:55;;;;;;;7.72;1.33;;;2.60;99.90;;;;;;5073093;28;20032;-78
2023/03/05 01:23:22;;;;;;;9.50;1.42;;;2.80;99.90;;;;;;5056715;28;20041;-79
2023/03/05 01:25:54;;;;;;;5.05;1.20;;;2.50;99.90;;;;;;5073290;28;20136;-78
2023/03/05 01:28:21;;;;;;;8.70;1.80;;;2.50;99.90;;;;;;5085662;28;20044;-78
2023/03/05 01:30:47;;;;;;;6.55;1.45;;;2.60;99.90;;;;;;5093226;28;20476;-78
2023/03/05 01:33:14;;;;;;;4.35;1.20;;;2.50;99.90;;;;;;5076088;28;20108;-78
2023/03/05 01:35:41;;;;;;;4.32;1.00;;;2.50;99.90;;;;;;5092657;28;20084;-78
2023/03/05 01:38:08;;;;;;;4.65;1.23;;;2.50;99.90;;;;;;5072353;28;20099;-79
2023/03/05 01:40:34;;;;;;;10.27;1.45;;;2.60;99.90;;;;;;5056359;28;20036;-78
2023/03/05 01:43:28;;;;;;;10.70;1.63;;;2.70;99.90;;;;;;5056622;28;20398;-78
2023/03/05 01:46:22;;;;;;;5.35;1.27;;;2.60;99.90;;;;;;5084616;28;20480;-78
2023/03/05 01:49:10;;;;;;;8.10;1.27;;;2.50;99.90;;;;;;5082283;28;20118;-78
2023/03/05 01:51:48;;;;;;;7.45;1.40;;;2.50;99.90;;;;;;5092458;28;20713;-79
2023/03/05 01:54:18;;;;;;;6.32;1.77;;;2.60;99.90;;;;;;5092887;28;20043;-78
2023/03/05 01:56:47;;;;;;;7.00;1.25;;;2.50;99.90;;;;;;5092507;28;20044;-78
2023/03/05 01:59:15;;;;;;;5.57;1.20;;;2.60;99.90;;;;;;5084269;28;20095;-78
2023/03/05 02:01:45;;;;;;;5.45;1.00;;;2.50;99.90;;;;;;5056407;28;20075;-78
2023/03/05 02:04:15;;;;;;;6.57;1.13;;;2.60;99.90;;;;;;5088868;28;20136;-79
2023/03/05 02:06:43;;;;;;;7.72;1.42;;;2.90;99.90;;;;;;5072178;28;20471;-78
2023/03/05 02:09:10;;;;;;;6.75;1.10;;;2.60;99.90;;;;;;5071496;28;20404;-79
2023/03/05 02:11:37;;;;;;;2.92;0.80;;;2.60;99.90;;;;;;5088089;28;20043;-78
2023/03/05 02:14:05;;;;;;;2.75;0.93;;;2.60;99.90;;;;;;5076005;28;20073;-78
2023/03/05 02:16:35;;;;;;;7.75;1.20;;;2.50;99.90;;;;;;5075719;28;20061;-78
2023/03/05 02:19:07;;;;;;;4.05;0.88;;;2.60;99.90;;;;;;5092334;28;20411;-78
2023/03/05 02:21:41;;;;;;;8.20;1.10;;;2.50;99.90;;;;;;5092231;28;20044;-78
2023/03/05 02:24:14;;;;;;;4.63;0.90;;;3.00;99.90;;;;;;5109110;28;20565;-79
2023/03/05 02:26:43;;;;;;;3.17;1.20;;;2.50;99.90;;;;;;5109571;28;20035;-78
2023/03/05 02:29:15;;;;;;;9.38;1.17;;;2.60;99.90;;;;;;5092195;28;20046;-79
2023/03/05 02:31:42;;;;;;;4.63;1.17;;;2.50;99.90;;;;;;5092085;28;20032;-78
2023/03/05 02:34:09;;;;;;;8.73;1.13;;;2.40;99.90;;;;;;5092607;28;20092;-78
2023/03/05 02:36:35;;;;;;;3.10;0.77;;;3.10;99.90;;;;;;5075814;28;20104;-78
2023/03/05 02:39:03;;;;;;;6.80;0.85;;;2.80;99.90;;;;;;5092195;28;20040;-78
2023/03/05 02:41:29;;;;;;;7.15;0.70;;;2.60;99.90;;;;;;5091736;28;20129;-78
2023/03/05 02:43:56;;;;;;;6.93;0.95;;;3.00;99.90;;;;;;5074218;28;20074;-78
2023/03/05 02:46:23;;;;;;;6.25;1.10;;;2.40;99.90;;;;;;5055470;28;20040;-78
2023/03/05 02:48:50;;;;;;;6.13;0.95;;;2.60;99.90;;;;;;5055683;28;20036;-78
2023/03/05 02:51:18;;;;;;;6.03;0.88;;;2.40;99.90;;;;;;5072074;28;20110;-79
2023/03/05 02:53:45;;;;;;;5.32;1.10;;;2.40;99.90;;;;;;5055521;28;20098;-79
2023/03/05 02:56:12;;;;;;;3.45;0.80;;;2.40;99.90;;;;;;5071951;28;20033;-78
2023/03/05 02:58:39;;;;;;;6.60;0.95;;;2.70;99.90;;;;;;5055678;28;20037;-79
2023/03/05 03:01:06;;;;;;;7.40;0.98;;;2.40;99.90;;;;;;5075203;28;20028;-78
2023/03/05 03:03:33;;;;;;;3.25;0.80;;;2.40;99.90;;;;;;5092098;28;20226;-78
2023/03/05 03:06:00;;;;;;;7.20;1.23;;;3.20;99.90;;;;;;5075411;28;20036;-78
2023/03/05 03:08:27;;;;;;;3.75;0.73;;;2.90;99.90;;;;;;5075297;28;20101;-78
2023/03/05 03:10:55;;;;;;;3.42;0.73;;;2.40;99.90;;;;;;5091967;28;20047;-78
2023/03/05 03:13:24;;;;;;;2.95;1.10;;;2.40;99.90;;;;;;5071811;28;20781;-79
2023/03/05 03:16:08;;;;;;;5.38;0.85;;;2.30;99.90;;;;;;5072244;28;20044;-78
2023/03/05 03:18:35;;;;;;;6.25;1.02;;;2.30;99.90;;;;;;5088733;28;20052;-78
2023/03/05 03:21:02;;;;;;;6.85;1.02;;;2.30;99.90;;;;;;5075519;28;20109;-78
2023/03/05 03:23:30;;;;;;;3.72;1.02;;;2.30;99.90;;;;;;5091997;28;20131;-79
2023/03/05 03:25:57;;;;;;;2.80;0.77;;;2.30;99.90;;;;;;5091960;28;20044;-78
2023/03/05 03:28:24;;;;;;;8.48;1.45;;;2.30;99.90;;;;;;5074815;28;20417;-79
2023/03/05 03:30:51;;;;;;;2.13;0.80;;;2.30;99.90;;;;;;5075269;28;20033;-78
2023/03/05 03:33:18;;;;;;;6.50;1.10;;;2.40;99.90;;;;;;5075062;28;20074;-78
2023/03/05 03:35:45;;;;;;;5.30;1.02;;;2.40;99.90;;;;;;5058007;28;20450;-79
2023/03/05 03:38:12;;;;;;;6.07;1.10;;;2.30;99.90;;;;;;5058564;28;20079;-79
2023/03/05 03:40:41;;;;;;;5.88;1.00;;;2.30;99.90;;;;;;5058525;28;20083;-79
2023/03/05 03:43:07;;;;;;;2.85;1.00;;;2.30;99.90;;;;;;5091779;28;20049;-79
2023/03/05 03:45:34;;;;;;;3.25;1.15;;;2.30;99.90;;;;;;5058022;28;20041;-79
2023/03/05 03:48:01;;;;;;;3.70;1.02;;;2.30;99.90;;;;;;5074960;28;20040;-78
2023/03/05 03:50:28;;;;;;;4.90;1.00;;;2.30;99.90;;;;;;5058363;28;20037;-79
2023/03/05 03:52:54;;;;;;;10.10;1.23;;;2.60;99.90;;;;;;5058123;28;20051;-79
2023/03/05 03:55:21;;;;;;;5.43;1.00;;;2.20;99.90;;;;;;5075028;28;20048;-79
2023/03/05 03:57:48;;;;;;;7.43;1.15;;;2.40;99.90;;;;;;5058390;28;20049;-79
2023/03/05 04:00:15;;;;;;;6.03;1.00;;;2.20;99.90;;;;;;5058390;28;20071;-79
2023/03/05 04:02:42;;;;;;;7.15;0.93;;;2.20;99.90;;;;;;5058373;28;20139;-78
2023/03/05 04:05:09;;;;;;;5.47;1.35;;;2.20;99.90;;;;;;5107103;28;20115;-78
2023/03/05 04:07:36;;;;;;;9.15;1.40;;;2.20;99.90;;;;;;5094807;28;20044;-79
2023/03/05 04:10:03;;;;;;;5.57;1.02;;;2.20;99.90;;;;;;5094691;28;20082;-78
2023/03/05 04:12:29;;;;;;;6.93;0.95;;;2.20;99.90;;;;;;5095174;28;20040;-78
2023/03/05 04:14:56;;;;;;;10.80;1.10;;;2.30;99.90;;;;;;5083167;28;20043;-79
2023/03/05 04:17:23;;;;;;;2.90;1.02;;;2.40;99.90;;;;;;5058235;28;20046;-79
2023/03/05 04:19:50;;;;;;;6.13;0.90;;;2.20;99.90;;;;;;5057957;28;20040;-79
2023/03/05 04:22:17;;;;;;;2.95;0.90;;;2.30;99.90;;;;;;5057835;28;20118;-79
2023/03/05 04:24:44;;;;;;;3.38;1.08;;;2.40;99.90;;;;;;5073775;28;20743;-79
2023/03/05 04:27:12;;;;;;;6.75;1.20;;;2.20;99.90;;;;;;5057910;28;20072;-79
2023/03/05 04:29:38;;;;;;;4.25;1.23;;;2.30;99.90;;;;;;5073772;28;20033;-79
2023/03/05 04:32:06;;;;;;;7.97;1.20;;;2.70;99.90;;;;;;5073535;28;20074;-79
2023/03/05 04:34:33;;;;;;;7.13;1.35;;;2.20;99.90;;;;;;5076900;28;20048;-78
2023/03/05 04:36:59;;;;;;;7.63;1.20;;;2.20;99.90;;;;;;5093801;28;20040;-79
2023/03/05 04:39:26;;;;;;;3.60;1.05;;;2.20;99.90;;;;;;5074109;28;20515;-79
2023/03/05 04:41:53;;;;;;;4.75;1.00;;;2.80;99.90;;;;;;5073854;28;20037;-78
2023/03/05 04:44:22;;;;;;;3.00;1.00;;;2.20;99.90;;;;;;5074099;28;20036;-78
2023/03/05 04:46:48;;;;;;;2.63;0.70;;;2.20;99.90;;;;;;5072991;28;20040;-78
2023/03/05 04:49:15;;;;;;;2.58;1.00;;;2.20;99.90;;;;;;5093883;28;20038;-78
2023/03/05 04:51:42;;;;;;;1.60;0.68;;;2.20;99.90;;;;;;5110356;28;20047;-79
2023/03/05 04:54:09;;;;;;;1.75;0.98;;;2.20;99.90;;;;;;5077358;28;20052;-78
2023/03/05 04:56:35;;;;;;;5.22;0.90;;;2.20;99.90;;;;;;5081698;28;20408;-79
2023/03/05 04:59:02;;;;;;;6.30;1.00;;;2.20;99.90;;;;;;5073516;28;20044;-78
2023/03/05 05:01:29;;;;;;;7.13;1.00;;;2.70;99.90;;;;;;5057113;28;20076;-78
2023/03/05 05:03:55;;;;;;;3.40;0.77;;;2.20;99.90;;;;;;5056623;28;22427;-79
2023/03/05 05:06:22;;;;;;;5.50;0.88;;;2.20;99.90;;;;;;5062668;28;20036;-78
2023/03/05 05:08:49;;;;;;;6.25;0.80;;;2.40;99.90;;;;;;5089651;28;20051;-79
2023/03/05 05:11:16;;;;;;;4.90;0.93;;;2.30;99.90;;;;;;5056792;28;20044;-78
2023/03/05 05:13:43;;;;;;;3.58;0.85;;;2.20;99.90;;;;;;5057126;28;20080;-78
2023/03/05 05:16:10;;;;;;;5.75;1.00;;;2.20;99.90;;;;;;5057967;28;20072;-79
2023/03/05 05:18:37;;;;;;;3.65;0.60;;;2.50;99.90;;;;;;5077057;28;20472;-78
2023/03/05 05:21:12;;;;;;;3.45;1.00;;;2.20;99.90;;;;;;5093091;28;20123;-79
2023/03/05 05:23:38;;;;;;;4.75;0.70;;;2.90;99.90;;;;;;5076748;28;20050;-79
2023/03/05 05:26:07;;;;;;;2.63;0.80;;;2.60;99.90;;;;;;5076353;28;20123;-79
2023/03/05 05:28:34;;;;;;;4.43;1.02;;;2.80;99.90;;;;;;5074801;28;20041;-79
2023/03/05 05:31:06;;;;;;;2.83;0.70;;;2.30;99.90;;;;;;5056280;28;20108;-79
2023/03/05 05:33:33;;;;;;;6.63;0.90;;;2.30;99.90;;;;;;5089431;28;20039;-79
2023/03/05 05:36:03;;;;;;;3.03;0.77;;;2.20;99.90;;;;;;5056294;28;20126;-79
2023/03/05 05:38:29;;;;;;;3.67;0.90;;;2.20;99.90;;;;;;5073070;28;20044;-79
2023/03/05 05:41:12;;;;;;;5.80;0.95;;;3.00;99.90;;;;;;5072567;28;20041;-78
2023/03/05 05:43:39;;;;;;;4.22;0.98;;;2.20;99.90;;;;;;5072914;28;20054;-79
2023/03/05 05:46:09;;;;;;;5.38;1.00;;;2.50;99.90;;;;;;5056535;28;20040;-78
2023/03/05 05:48:37;;;;;;;3.85;1.00;;;2.10;99.90;;;;;;5085657;28;20047;-78
2023/03/05 05:51:16;;;;;;;0.82;0.50;;;2.10;99.90;;;;;;5094173;28;20064;-78
2023/03/05 05:53:43;;;;;;;3.78;0.40;;;2.40;99.90;;;;;;5088844;28;20466;-79
2023/03/05 05:56:11;;;;;;;2.08;0.40;;;2.20;99.90;;;;;;5055786;28;20071;-78
2023/03/05 05:58:42;;;;;;;0.57;0.50;;;2.30;99.90;;;;;;5072276;28;20041;-79
2023/03/05 06:01:25;;;;;;;0.50;0.40;;;2.00;99.90;;;;;;5072399;28;20029;-79
2023/03/05 06:03:51;;;;;;;3.20;0.40;;;2.40;99.90;;;;;;5071977;28;20083;-79
2023/03/05 06:06:21;;;;;;;1.23;0.50;;;2.00;99.90;;;;;;5083432;28;20497;-79
2023/03/05 06:08:48;;;;;;;1.95;1.10;;;2.00;99.90;;;;;;5088726;28;20559;-79
2023/03/05 06:11:16;;;;;;;1.02;0.50;;;2.50;99.90;;;;;;5080865;28;20693;-79
2023/03/05 06:13:43;;;;;;;0.98;0.50;;;1.90;99.90;;;;;;5072118;28;20481;-78
2023/03/05 06:16:16;;;;;;;1.40;0.60;;;1.90;99.90;;;;;;5072113;28;20032;-78
2023/03/05 06:18:42;;;;;;;4.82;1.13;;;2.20;99.90;;;;;;5075227;28;20100;-78
2023/03/05 06:21:14;;;;;;;3.10;0.63;;;2.00;99.90;;;;;;5091877;28;20123;-78
2023/03/05 06:23:42;;;;;;;2.42;0.52;;;1.90;99.90;;;;;;5109086;28;20105;-78
2023/03/05 06:26:11;;;;;;;0.77;0.50;;;1.80;99.90;;;;;;5075608;28;20074;-78
2023/03/05 06:28:39;;;;;;;0.93;0.50;;;2.10;99.90;;;;;;5108784;28;20466;-78
2023/03/05 06:31:08;;;;;;;1.98;0.90;;;2.20;99.90;;;;;;5071975;28;20485;-78
2023/03/05 06:33:36;;;;;;;1.70;0.60;;;1.80;99.90;;;;;;5088576;28;20037;-78
2023/03/05 06:36:05;;;;;;;1.92;0.50;;;1.80;99.90;;;;;;5072100;28;20485;-78
2023/03/05 06:38:32;;;;;;;0.93;0.60;;;1.80;99.90;;;;;;5071921;28;20507;-78
2023/03/05 06:41:08;;;;;;;0.45;0.43;;;2.10;99.90;;;;;;5088425;28;20798;-78
2023/03/05 06:43:37;;;;;;;0.73;0.45;;;1.70;99.90;;;;;;5088615;28;20048;-78
2023/03/05 06:46:17;;;;;;;0.75;0.40;;;2.50;99.90;;;;;;5088418;28;20516;-78
2023/03/05 06:48:44;;;;;;;2.63;1.45;;;1.70;99.90;;;;;;5072122;28;20106;-78
2023/03/05 06:51:27;;;;;;;2.17;0.90;;;1.70;99.90;;;;;;5109325;28;20080;-78
2023/03/05 06:53:54;;;;;;;1.27;0.80;;;1.70;99.90;;;;;;5093253;28;20051;-79
2023/03/05 06:56:22;;;;;;;1.52;0.85;;;1.70;99.90;;;;;;5095466;28;20032;-78
2023/03/05 06:58:50;;;;;;;2.30;0.60;;;2.20;99.90;;;;;;5096008;28;20036;-78
2023/03/05 07:01:17;;;;;;;3.97;0.75;;;2.00;99.90;;;;;;5094672;28;20377;-78
2023/03/05 07:03:47;;;;;;;3.65;1.00;;;2.50;99.90;;;;;;5095773;28;20040;-78
2023/03/05 07:06:14;;;;;;;3.22;0.50;;;1.80;99.90;;;;;;5096347;28;20098;-78
2023/03/05 07:08:43;;;;;;;3.40;0.82;;;1.90;99.90;;;;;;5095572;28;20036;-82
2023/03/05 07:11:12;;;;;;;4.32;0.88;;;2.10;99.90;;;;;;5077845;28;20520;-79
2023/03/05 07:13:39;;;;;;;0.32;0.32;;;1.90;99.90;;;;;;5106390;28;20064;-78
2023/03/05 07:16:14;;;;;;;0.30;0.30;;;2.80;99.90;;;;;;5075147;28;20476;-78
2023/03/05 07:18:41;;;;;;;1.70;0.60;;;2.40;99.90;;;;;;5090229;28;20157;-78
2023/03/05 07:21:10;;;;;;;0.95;0.60;;;2.00;99.90;;;;;;5095671;28;20051;-78
2023/03/05 07:23:36;;;;;;;0.65;0.60;;;2.50;99.90;;;;;;5092362;28;20048;-78
2023/03/05 07:26:04;;;;;;;0.93;0.60;;;2.20;99.90;;;;;;5066596;28;20492;-78
2023/03/05 07:28:32;;;;;;;3.03;0.80;;;2.70;99.90;;;;;;5081810;28;20036;-78
2023/03/05 07:31:04;;;;;;;3.15;0.85;;;2.10;99.90;;;;;;5079587;28;20044;-78
2023/03/05 07:33:32;;;;;;;0.75;0.52;;;2.10;99.90;;;;;;5083601;28;20028;-79
2023/03/05 07:36:00;;;;;;;0.73;0.40;;;2.80;99.90;;;;;;5089494;28;20047;-78
2023/03/05 07:38:27;;;;;;;3.65;0.82;;;2.20;99.90;;;;;;5064063;28;20045;-79
2023/03/05 07:40:53;;;;;;;3.67;0.60;;;2.20;99.90;;;;;;5058860;28;20056;-79
2023/03/05 07:43:20;;;;;;;1.02;0.43;;;2.60;99.90;;;;;;5061373;28;20033;-79
2023/03/05 07:45:47;;;;;;;1.17;0.35;;;2.40;99.90;;;;;;5058491;28;20037;-79
2023/03/05 07:48:19;;;;;;;2.50;1.13;;;2.90;99.90;;;;;;5091959;28;20052;-78
2023/03/05 07:50:47;;;;;;;1.92;0.82;;;2.50;99.90;;;;;;5075414;28;20049;-79
2023/03/05 07:53:14;;;;;;;1.88;0.70;;;2.60;99.90;;;;;;5046589;28;20069;-79
2023/03/05 07:55:45;;;;;;;0.60;0.43;;;2.60;99.90;;;;;;5038652;28;20454;-79
2023/03/05 07:58:13;;;;;;;1.10;0.40;;;2.60;99.90;;;;;;5070814;28;20783;-75
2023/03/05 08:00:40;;;;;;;4.00;0.50;;;2.70;99.90;;;;;;5087201;28;20047;-76
2023/03/05 08:03:09;;;;;;;1.27;0.90;;;2.70;99.90;;;;;;5069374;28;20059;-75
2023/03/05 08:05:39;;;;;;;1.17;0.60;;;2.90;99.90;;;;;;5051989;28;20140;-75
2023/03/05 08:08:06;;;;;;;4.95;0.73;;;2.80;99.90;;;;;;5053320;28;20045;-76
2023/03/05 08:10:34;;;;;;;2.22;0.70;;;2.90;99.90;;;;;;5069973;28;20124;-75
2023/03/05 08:13:02;;;;;;;3.40;0.65;;;3.00;99.90;;;;;;5050296;28;20060;-76
2023/03/05 08:15:30;;;;;;;1.73;0.50;;;3.00;99.90;;;;;;5076122;28;20047;-76
2023/03/05 08:17:57;;;;;;;0.30;0.30;;;3.10;99.90;;;;;;5021725;28;20079;-75
2023/03/05 08:20:24;;;;;;;4.28;0.57;;;3.20;99.90;;;;;;5067292;28;20037;-76
2023/03/05 08:22:51;;;;;;;0.30;0.28;;;3.30;99.90;;;;;;5051033;28;20044;-76
2023/03/05 08:25:18;;;;;;;0.82;0.50;;;3.30;99.90;;;;;;5070908;28;20041;-77
2023/03/05 08:27:46;;;;;;;4.72;0.73;;;3.30;99.90;;;;;;5087417;28;20114;-76
2023/03/05 08:30:16;;;;;;;0.43;0.22;;;3.40;99.90;;;;;;5037901;28;20139;-76
2023/03/05 08:32:43;;;;;;;1.80;0.55;;;3.40;99.90;;;;;;5070585;28;20126;-76
2023/03/05 08:35:10;;;;;;;3.95;0.65;;;3.50;99.90;;;;;;5054131;28;20493;-76
2023/03/05 08:37:37;;;;;;;3.72;1.17;;;3.60;99.90;;;;;;5070630;28;20049;-76
2023/03/05 08:40:05;;;;;;;4.85;0.60;;;3.60;99.90;;;;;;5070680;28;20055;-76
2023/03/05 08:42:31;;;;;;;1.33;0.57;;;3.70;99.90;;;;;;5054313;28;20079;-76
2023/03/05 08:44:58;;;;;;;0.60;0.40;;;3.90;99.90;;;;;;5054264;28;20073;-76
2023/03/05 08:47:26;;;;;;;3.20;0.50;;;3.80;99.90;;;;;;5053568;28;20131;-76
2023/03/05 08:49:56;;;;;;;1.45;0.63;;;4.40;99.90;;;;;;5054037;28;20044;-76
2023/03/05 08:52:23;;;;;;;5.63;0.93;;;4.00;99.90;;;;;;5082349;28;20048;-77
2023/03/05 08:54:50;;;;;;;5.53;0.52;;;4.00;99.90;;;;;;5093696;28;20048;-76
2023/03/05 08:57:17;;;;;;;11.50;0.82;;;4.40;99.90;;;;;;5077130;28;20131;-76
2023/03/05 08:59:43;;;;;;;1.73;0.65;;;4.10;99.90;;;;;;5110429;28;20189;-76
2023/03/05 09:02:12;;;;;;;3.25;0.50;;;4.30;99.90;;;;;;5077449;28;20488;-76
2023/03/05 09:04:39;;;;;;;1.40;0.50;;;4.30;99.90;;;;;;5080417;28;20060;-76
2023/03/05 09:07:06;;;;;;;0.60;0.25;;;4.30;99.90;;;;;;5057087;28;20044;-76
2023/03/05 09:09:33;;;;;;;2.30;0.68;;;4.40;99.90;;;;;;5073721;28;20041;-76
2023/03/05 09:12:00;;;;;;;2.58;0.70;;;4.50;99.90;;;;;;5073932;28;20063;-76
2023/03/05 09:14:27;;;;;;;1.85;0.60;;;4.60;99.90;;;;;;5073272;28;20044;-77
2023/03/05 09:16:56;;;;;;;1.83;0.40;;;4.60;99.90;;;;;;5056967;28;20385;-76
2023/03/05 09:19:23;;;;;;;3.85;0.40;;;4.60;99.90;;;;;;5090470;28;20040;-76
2023/03/05 09:21:50;;;;;;;6.15;0.55;;;4.70;99.90;;;;;;5073195;28;20098;-76
2023/03/05 09:24:17;;;;;;;3.17;0.70;;;4.80;99.90;;;;;;5073608;28;20044;-76
2023/03/05 09:26:43;;;;;;;2.75;0.30;;;4.90;99.90;;;;;;5073290;28;20040;-76
2023/03/05 09:29:11;;;;;;;5.70;0.65;;;5.00;99.90;;;;;;5073597;28;20033;-76
2023/03/05 09:31:38;;;;;;;1.52;0.60;;;5.00;99.90;;;;;;5073934;28;20423;-75
2023/03/05 09:34:07;;;;;;;5.80;0.68;;;5.00;99.90;;;;;;5073337;28;20511;-76
2023/03/05 09:36:33;;;;;;;1.95;0.40;;;5.10;99.90;;;;;;5074932;28;20447;-76
2023/03/05 09:39:00;;;;;;;0.15;0.15;;;5.20;99.90;;;;;;5093172;28;20028;-76
2023/03/05 09:41:43;;;;;;;1.55;0.28;;;5.20;99.90;;;;;;5076503;28;20061;-76
2023/03/05 09:44:22;;;;;;;1.83;0.57;;;5.20;99.90;;;;;;5093192;28;20123;-76
2023/03/05 09:47:03;;;;;;;1.55;0.47;;;5.20;99.90;;;;;;5093100;28;20044;-76
2023/03/05 09:49:52;;;;;;;1.50;0.25;;;5.40;99.90;;;;;;5092868;28;20131;-76
2023/03/05 09:52:22;;;;;;;1.65;0.70;;;5.40;99.90;;;;;;5032878;28;20054;-76
2023/03/05 09:54:55;;;;;;;2.58;0.63;;;5.60;99.90;;;;;;5109671;28;20055;-76
2023/03/05 09:57:30;;;;;;;1.40;0.40;;;5.60;99.90;;;;;;5093895;28;20045;-76
2023/03/05 10:00:07;;;;;;;7.28;0.77;;;5.40;99.90;;;;;;5089604;28;20036;-76
2023/03/05 10:02:52;;;;;;;0.28;0.20;;;5.00;99.90;;;;;;5072484;28;20048;-76
2023/03/05 10:05:31;;;;;;;0.45;0.22;;;4.80;99.90;;;;;;5072669;28;20119;-76
2023/03/05 10:08:02;;;;;;;0.80;0.30;;;5.00;99.90;;;;;;5092505;28;20040;-76
2023/03/05 10:10:42;;;;;;;0.88;0.30;;;4.50;99.90;;;;;;5093161;28;20078;-76
2023/03/05 10:13:25;;;;;;;1.70;0.40;;;4.50;99.90;;;;;;5092854;28;20412;-76
2023/03/05 10:16:24;;;;;;;1.80;0.60;;;4.50;99.90;;;;;;5092635;28;20040;-76
2023/03/05 10:19:11;;;;;;;1.27;0.47;;;4.60;99.90;;;;;;5072425;28;20097;-76
2023/03/05 10:22:04;;;;;;;0.73;0.50;;;4.70;99.90;;;;;;5052973;28;20084;-76
2023/03/05 10:24:52;;;;;;;0.95;0.28;;;4.80;99.90;;;;;;5072587;28;20047;-76
2023/03/05 10:27:41;;;;;;;2.05;0.40;;;5.00;99.90;;;;;;5098104;28;20047;-76
2023/03/05 10:30:25;;;;;;;1.77;0.60;;;5.00;99.90;;;;;;5064797;28;20454;-76
2023/03/05 10:33:13;;;;;;;0.30;0.30;;;5.20;99.90;;;;;;5096579;28;20040;-76
2023/03/05 10:36:05;;;;;;;5.78;0.68;;;5.30;99.90;;;;;;5096441;28;20066;-76
2023/03/05 10:39:00;;;;;;;2.97;0.50;;;5.40;99.90;;;;;;5080536;28;20048;-76
2023/03/05 10:41:51;;;;;;;2.40;0.40;;;5.40;99.90;;;;;;5076280;28;20381;-76
2023/03/05 10:44:40;;;;;;;0.55;0.25;;;5.50;99.90;;;;;;5036971;28;20041;-76
2023/03/05 10:47:27;;;;;;;1.48;0.65;;;5.50;99.90;;;;;;5076957;28;20036;-76
2023/03/05 10:49:56;;;;;;;2.75;0.35;;;5.50;99.90;;;;;;5096221;28;20237;-76
2023/03/05 10:52:39;;;;;;;1.45;0.40;;;5.50;99.90;;;;;;5095937;28;20519;-76
2023/03/05 10:55:18;;;;;;;2.90;0.38;;;5.60;99.90;;;;;;5096286;28;20132;-76
2023/03/05 10:57:46;;;;;;;2.28;0.73;;;5.80;99.90;;;;;;5092404;28;20040;-77
2023/03/05 11:00:19;;;;;;;2.22;0.43;;;5.90;99.90;;;;;;5076227;28;20412;-76
2023/03/05 11:02:53;;;;;;;2.38;0.85;;;5.90;99.90;;;;;;5075838;28;20473;-76
2023/03/05 11:05:57;;;;;;;8.15;0.88;;;6.00;99.90;;;;;;5075908;28;20036;-76
2023/03/05 11:08:31;;;;;;;2.38;0.32;;;6.30;99.90;;;;;;5061861;28;20052;-76
2023/03/05 11:11:20;;;;;;;2.60;0.55;;;6.40;99.90;;;;;;5112533;28;20043;-76
2023/03/05 11:14:02;;;;;;;0.68;0.40;;;6.30;99.90;;;;;;5096141;28;20044;-77
2023/03/05 11:16:32;;;;;;;1.42;0.25;;;6.50;99.90;;;;;;5095889;28;20036;-76
2023/03/05 11:19:32;;;;;;;3.00;0.30;;;6.50;99.90;;;;;;5105511;28;20427;-76
2023/03/05 11:22:16;;;;;;;1.70;0.47;;;6.60;99.90;;;;;;5092242;28;20131;-77
2023/03/05 11:24:45;;;;;;;2.53;0.38;;;6.80;99.90;;;;;;5111628;28;20123;-76
2023/03/05 11:27:49;;;;;;;1.77;0.85;;;6.80;99.90;;;;;;5079369;28;20725;-76
2023/03/05 11:30:23;;;;;;;2.13;0.35;;;7.00;99.90;;;;;;5078730;28;20044;-77
2023/03/05 11:33:06;;;;;;;1.45;0.43;;;7.10;99.90;;;;;;5075429;28;20098;-76
2023/03/05 11:35:36;;;;;;;3.10;0.20;;;7.10;99.90;;;;;;5092217;28;20044;-76
2023/03/05 11:38:06;;;;;;;0.95;0.32;;;7.10;99.90;;;;;;5085555;28;20504;-76
2023/03/05 11:40:36;;;;;;;2.05;0.32;;;7.00;99.90;;;;;;5112038;28;20036;-76
2023/03/05 11:43:04;;;;;;;1.35;0.22;;;7.10;99.90;;;;;;5095379;28;20040;-77
2023/03/05 11:45:32;;;;;;;1.13;0.45;;;7.00;99.90;;;;;;5111783;28;20433;-76
2023/03/05 11:48:11;;;;;;;2.30;0.30;;;6.80;99.90;;;;;;5111518;28;20032;-76
2023/03/05 11:50:42;;;;;;;4.47;0.75;;;6.70;99.90;;;;;;5095131;28;20036;-76
2023/03/05 11:53:23;;;;;;;2.38;0.55;;;6.70;99.90;;;;;;5094677;28;20090;-76
2023/03/05 11:56:23;;;;;;;0.82;0.47;;;6.60;99.90;;;;;;5095167;28;20134;-76
2023/03/05 11:59:19;;;;;;;1.02;0.40;;;6.70;99.90;;;;;;5068159;28;20144;-76
2023/03/05 12:01:50;;;;;;;0.93;0.50;;;6.70;99.90;;;;;;5074829;28;20051;-76
2023/03/05 12:04:18;;;;;;;1.98;0.20;;;6.80;99.90;;;;;;5074567;28;20182;-76
2023/03/05 12:07:00;;;;;;;0.25;0.13;;;6.70;99.90;;;;;;5074696;28;20055;-76
2023/03/05 12:09:42;;;;;;;0.93;0.22;;;6.70;99.90;;;;;;5108058;28;20040;-76
2023/03/05 12:12:29;;;;;;;5.78;0.60;;;6.70;99.90;;;;;;5074638;28;20044;-76
2023/03/05 12:15:18;;;;;;;5.50;0.65;;;6.60;99.90;;;;;;5107153;28;20059;-77
2023/03/05 12:17:57;;;;;;;1.50;0.30;;;6.50;99.90;;;;;;5094663;28;20362;-76
2023/03/05 12:20:45;;;;;;;0.73;0.43;;;6.70;99.90;;;;;;5094806;28;20500;-76
2023/03/05 12:23:18;;;;;;;0.30;0.30;;;6.80;99.90;;;;;;5094362;28;20484;-76
2023/03/05 12:25:51;;;;;;;0.85;0.30;;;6.90;99.90;;;;;;5080137;28;20119;-76
2023/03/05 12:28:33;;;;;;;0.13;0.13;;;6.80;99.90;;;;;;5090983;28;20044;-76
2023/03/05 12:31:21;;;;;;;5.38;0.40;;;6.80;99.90;;;;;;5074341;28;20040;-76
2023/03/05 12:33:48;;;;;;;0.45;0.22;;;6.70;99.90;;;;;;5070293;28;20155;-76
2023/03/05 12:36:21;;;;;;;1.45;0.82;;;6.60;99.90;;;;;;5074270;28;20127;-76
2023/03/05 12:38:55;;;;;;;1.50;0.60;;;6.60;99.90;;;;;;5073848;28;20126;-76
2023/03/05 12:41:22;;;;;;;0.45;0.20;;;6.60;99.90;;;;;;5074203;28;20127;-77
2023/03/05 12:44:16;;;;;;;1.45;0.35;;;6.60;99.90;;;;;;5073930;28;20080;-76
2023/03/05 12:47:11;;;;;;;4.80;0.32;;;6.70;99.90;;;;;;5090447;28;20045;-76
2023/03/05 12:49:39;;;;;;;2.85;1.33;;;6.60;99.90;;;;;;5074145;28;20052;-76
2023/03/05 12:52:25;;;;;;;4.38;0.50;;;6.60;99.90;;;;;;5072881;28;20098;-76
2023/03/05 12:55:18;;;;;;;5.68;0.47;;;6.70;99.90;;;;;;5090687;28;20198;-76
2023/03/05 12:57:47;;;;;;;1.35;0.50;;;6.70;99.90;;;;;;5073854;28;20451;-76
2023/03/05 13:00:22;;;;;;;1.55;0.57;;;6.70;99.90;;;;;;5073767;28;20045;-77
2023/03/05 13:02:57;;;;;;;1.15;0.52;;;6.50;99.90;;;;;;5074127;28;20401;-76
2023/03/05 13:05:31;;;;;;;2.05;0.47;;;6.40;99.90;;;;;;5082909;28;20119;-77
2023/03/05 13:08:21;;;;;;;0.63;0.22;;;6.40;99.90;;;;;;5080579;28;20075;-77
2023/03/05 13:10:57;;;;;;;2.00;0.73;;;6.60;99.90;;;;;;5074100;28;20093;-77
2023/03/05 13:13:27;;;;;;;5.68;1.15;;;6.70;99.90;;;;;;5073661;28;20050;-77
2023/03/05 13:15:55;;;;;;;3.75;0.57;;;6.60;99.90;;;;;;5074127;28;20039;-77
2023/03/05 13:18:27;;;;;;;4.78;1.02;;;6.70;99.90;;;;;;5074013;28;20041;-77
2023/03/05 13:21:07;;;;;;;0.43;0.40;;;6.60;99.90;;;;;;5057638;28;20051;-77